Time;durP1;ratioP1;P1;durP2;ratioP2;P2;SDS_P1;SDS_P2;PMS_P1;PMS_P2;Temp;Humidity;BMP_temperature;BMP_pressure;BME280_temperature;BME280_humidity;BME280_pressure;Samples;Min_cycle;Max_cycle;Signal;HPM_P1;HPM_P2
2022/08/20 00:00:35;;;;;;;9.20;5.65;;;;;;;20.53;60.67;99600.25;12229492;19;19999;-82
2022/08/20 00:04:44;;;;;;;8.40;5.47;;;;;;;20.49;60.61;99597.25;12210260;19;20455;-82
2022/08/20 00:08:53;;;;;;;8.30;5.40;;;;;;;20.42;60.72;99608.06;12269892;19;20007;-82
2022/08/20 00:12:55;;;;;;;9.90;5.35;;;;;;;20.39;61.34;99608.69;12271958;19;20030;-82
2022/08/20 00:17:11;;;;;;;7.93;6.00;;;;;;;20.37;61.49;99604.56;12216789;19;20007;-82
2022/08/20 00:21:45;;;;;;;9.35;5.70;;;;;;;20.36;61.34;99616.91;12237055;19;20029;-82
2022/08/20 00:26:22;;;;;;;;;;;;;;;;;;;;;
2022/08/20 00:30:40;;;;;;;9.25;5.43;;;;;;;20.42;61.72;99627.63;12234840;19;20032;-82
2022/08/20 00:34:56;;;;;;;8.40;5.40;;;;;;;20.49;62.45;99624.38;12206794;19;20006;-82
2022/08/20 00:44:51;;;;;;;7.93;5.32;;;;;;;20.53;63.03;99625.44;12217327;19;20074;-82
2022/08/20 00:49:44;;;;;;;7.85;4.70;;;;;;;20.58;63.38;99630.88;12240802;19;20010;-82
2022/08/20 00:54:32;;;;;;;7.03;4.72;;;;;;;20.66;63.85;99637.69;12220483;19;20006;-82
2022/08/20 00:59:00;;;;;;;6.82;4.22;;;;;;;20.74;63.79;99631.31;12216820;19;20110;-82
2022/08/20 01:03:19;;;;;;;8.30;4.60;;;;;;;20.83;63.95;99634.97;12238588;19;20007;-82
2022/08/20 01:13:10;;;;;;;7.10;5.13;;;;;;;20.92;63.94;99649.03;12237300;19;20011;-82
2022/08/20 01:18:04;;;;;;;5.45;4.22;;;;;;;20.94;63.81;99649.53;12215344;19;20126;-82
2022/08/20 01:32:48;;;;;;;7.30;5.15;;;;;;;20.87;64.82;99654.75;12209748;19;20019;-82
2022/08/20 01:37:46;;;;;;;8.73;4.85;;;;;;;20.88;65.00;99660.06;12224791;19;20010;-82
2022/08/20 01:43:00;;;;;;;8.20;4.70;;;;;;;20.93;64.96;99664.66;12023842;19;2004495;-82
2022/08/20 01:47:27;;;;;;;;;;;;;;;;;;;;;
2022/08/20 01:52:42;;;;;;;7.90;4.80;;;;;;;20.91;65.11;99659.41;12229224;19;20003;-82
2022/08/20 01:58:20;;;;;;;8.10;4.28;;;;;;;20.94;64.82;99663.53;12124740;19;2004468;-82
2022/08/20 02:03:33;;;;;;;7.07;4.80;;;;;;;20.99;65.23;99666.19;12118713;19;2020355;-82
2022/08/20 02:09:00;;;;;;;7.03;4.50;;;;;;;21.00;65.66;99665.06;12222321;19;20566;-82
2022/08/20 02:14:20;;;;;;;8.27;4.40;;;;;;;21.00;65.67;99679.06;12225492;19;20574;-82
2022/08/20 02:20:10;;;;;;;6.28;4.50;;;;;;;21.00;65.58;99672.59;11918400;19;2004388;-82
2022/08/20 02:25:22;;;;;;;6.20;3.63;;;;;;;21.02;66.08;99675.91;12020468;19;2020531;-82
2022/08/20 02:30:48;;;;;;;;;;;;;;;;;;;;;
2022/08/20 02:36:17;;;;;;;7.50;4.07;;;;;;;21.11;66.76;99677.59;12176439;19;20035;-82
2022/08/20 02:46:53;;;;;;;7.22;4.05;;;;;;;21.24;66.90;99678.66;12224314;19;20006;-82
2022/08/20 02:52:06;;;;;;;;;;;;;;;;;;;;;
2022/08/20 03:02:51;;;;;;;8.23;4.03;;;;;;;21.30;67.83;99680.16;12196331;19;20068;-82
2022/08/20 03:08:04;;;;;;;8.77;4.40;;;;;;;21.31;68.25;99683.78;12244557;19;20003;-82
2022/08/20 03:12:52;;;;;;;7.75;4.70;;;;;;;21.32;67.99;99674.22;12100017;19;2004269;-82
2022/08/20 03:17:57;;;;;;;6.55;4.00;;;;;;;21.28;68.32;99674.03;12200074;19;20014;-82
2022/08/20 03:22:56;;;;;;;6.10;3.85;;;;;;;21.28;68.62;99678.81;12223057;19;20007;-82
2022/08/20 03:28:02;;;;;;;7.35;3.95;;;;;;;21.30;69.20;99671.75;12102951;19;2004620;-82
2022/08/20 03:33:26;;;;;;;5.60;3.42;;;;;;;21.30;69.04;99671.75;12202814;19;20387;-82
2022/08/20 03:38:54;;;;;;;;;;;;;;;;;;;;;
2022/08/20 03:43:57;;;;;;;;;;;;;;;;;;;;;
2022/08/20 03:49:27;;;;;;;5.25;3.83;;;;;;;21.31;69.78;99679.00;12023134;19;2004391;-82
2022/08/20 03:54:51;;;;;;;;;;;;;;;;;;;;;
2022/08/20 04:00:20;;;;;;;7.63;3.97;;;;;;;21.27;69.82;99683.59;12200716;19;20026;-82
2022/08/20 04:11:20;;;;;;;6.63;3.58;;;;;;;21.19;70.46;99678.78;12198000;19;20026;-82
2022/08/20 04:26:50;;;;;;;6.28;3.40;;;;;;;21.05;71.55;99681.69;12230881;19;20509;-82
2022/08/20 04:32:01;;;;;;;6.25;4.25;;;;;;;20.99;71.64;99685.78;12206354;19;20010;-82
2022/08/20 04:37:06;;;;;;;4.88;3.58;;;;;;;20.97;71.90;99688.09;12233099;19;20032;-82
2022/08/20 04:41:55;;;;;;;7.30;3.95;;;;;;;20.96;72.17;99686.44;12206590;19;20762;-82
2022/08/20 04:46:35;;;;;;;7.00;3.88;;;;;;;20.98;71.71;99692.53;12231467;19;20014;-82
2022/08/20 04:51:38;;;;;;;7.53;3.80;;;;;;;20.99;71.71;99698.97;12212408;19;20027;-82
2022/08/20 04:56:51;;;;;;;;;;;;;;;;;;;;;
2022/08/20 05:02:23;;;;;;;5.18;3.63;;;;;;;21.10;71.74;99694.75;12204533;19;20006;-82
2022/08/20 05:07:07;;;;;;;6.13;3.70;;;;;;;21.14;71.51;99704.16;12233483;19;20013;-82
2022/08/20 05:30:52;;;;;;;5.88;3.80;;;;;;;21.63;72.04;99724.66;12228604;19;20003;-79
2022/08/20 05:34:53;;;;;;;6.07;3.78;;;;;;;21.74;71.61;99736.38;12207937;19;20402;-81
2022/08/20 05:38:55;;;;;;;6.85;3.70;;;;;;;21.87;71.42;99740.22;12230107;19;20011;-83
2022/08/20 05:42:57;;;;;;;7.13;3.80;;;;;;;21.95;71.16;99745.84;12229206;19;20471;-83
2022/08/20 05:46:58;;;;;;;5.15;3.33;;;;;;;22.04;70.97;99748.63;12208433;19;20544;-83
2022/08/20 05:51:04;;;;;;;6.80;3.80;;;;;;;22.11;70.92;99754.59;12230337;19;20010;-81
2022/08/20 05:55:08;;;;;;;5.88;3.67;;;;;;;22.13;71.04;99757.91;12233886;19;20010;-83
2022/08/20 05:59:12;;;;;;;5.05;3.47;;;;;;;22.16;71.24;99760.06;12207021;19;20014;-83
2022/08/20 06:07:37;;;;;;;4.65;2.72;;;;;;;22.15;71.35;99765.97;12214678;19;20014;-81
2022/08/20 06:11:38;;;;;;;3.67;2.70;;;;;;;22.15;71.92;99758.38;12234445;19;20014;-80
2022/08/20 06:15:40;;;;;;;6.40;2.67;;;;;;;22.22;71.98;99758.78;12231280;19;20072;-80
2022/08/20 06:19:44;;;;;;;4.00;2.67;;;;;;;22.28;71.74;99757.44;12207358;19;20035;-79
2022/08/20 06:23:47;;;;;;;4.15;2.42;;;;;;;22.32;72.26;99754.81;12227624;19;20007;-79
2022/08/20 06:28:00;;;;;;;5.22;2.90;;;;;;;22.23;72.77;99760.41;12227262;19;20025;-79
2022/08/20 06:32:02;;;;;;;5.95;2.75;;;;;;;22.19;73.00;99765.03;12207395;19;20515;-80
2022/08/20 06:36:04;;;;;;;5.27;2.43;;;;;;;22.13;73.76;99777.56;12227194;19;20007;-80
2022/08/20 06:40:09;;;;;;;5.47;2.13;;;;;;;22.17;73.88;99775.75;12228188;19;20074;-80
2022/08/20 06:44:12;;;;;;;3.67;2.35;;;;;;;22.31;73.70;99778.44;12205021;19;20459;-80
2022/08/20 06:48:13;;;;;;;3.90;2.50;;;;;;;22.34;73.95;99788.16;12226054;19;20045;-79
2022/08/20 06:52:16;;;;;;;6.45;4.30;;;;;;;22.17;76.42;99783.38;12228058;19;20014;-79
2022/08/20 06:56:17;;;;;;;9.03;6.50;;;;;;;22.04;79.84;99785.09;12205655;19;20044;-80
2022/08/20 07:00:19;;;;;;;10.02;7.53;;;;;;;22.09;81.32;99787.75;12236038;19;20083;-80
2022/08/20 07:04:25;;;;;;;13.43;8.60;;;;;;;22.27;81.76;99795.06;12241673;19;20013;-79
2022/08/20 07:08:27;;;;;;;12.90;8.75;;;;;;;22.27;83.35;99795.06;12221156;19;20045;-80
2022/08/20 07:12:28;;;;;;;14.88;10.85;;;;;;;22.13;84.69;99785.13;12247102;19;20014;-80
2022/08/20 07:16:30;;;;;;;17.05;11.45;;;;;;;21.92;87.35;99787.72;12240282;19;20014;-82
2022/08/20 07:20:34;;;;;;;18.70;12.02;;;;;;;21.83;87.07;99796.97;12199134;19;20094;-82
2022/08/20 07:24:37;;;;;;;18.55;12.18;;;;;;;21.65;88.09;99789.63;12228699;19;20051;-81
2022/08/20 07:28:42;;;;;;;19.08;13.27;;;;;;;21.55;90.60;99787.94;12206392;19;20419;-81
2022/08/20 07:32:45;;;;;;;20.23;13.25;;;;;;;21.57;91.99;99793.25;12233271;19;20044;-83
2022/08/20 07:36:49;;;;;;;19.05;12.40;;;;;;;21.60;94.07;99782.19;12244222;19;20010;-84
2022/08/20 07:40:54;;;;;;;17.42;12.57;;;;;;;21.70;94.30;99795.09;12236519;19;20018;-84
2022/08/20 07:44:56;;;;;;;18.77;13.05;;;;;;;21.97;94.20;99801.59;12251175;19;20018;-86
2022/08/20 07:48:58;;;;;;;16.85;11.90;;;;;;;22.21;93.56;99798.38;12260445;19;20011;-86
2022/08/20 07:53:00;;;;;;;16.67;12.17;;;;;;;22.31;92.91;99803.69;12252615;19;20010;-86
2022/08/20 07:57:02;;;;;;;16.40;11.55;;;;;;;22.43;92.31;99809.47;12273561;19;20007;-84
2022/08/20 08:01:05;;;;;;;19.45;11.90;;;;;;;22.44;93.59;99804.69;12268507;19;19999;-84
2022/08/20 08:05:08;;;;;;;18.65;11.68;;;;;;;22.42;93.51;99813.41;12245847;19;20010;-84
2022/08/20 08:09:12;;;;;;;16.02;11.40;;;;;;;22.60;92.62;99819.06;12260640;19;20003;-83
2022/08/20 08:13:14;;;;;;;16.33;10.57;;;;;;;22.83;91.93;99812.09;12262963;19;20011;-84
2022/08/20 08:17:17;;;;;;;14.98;9.98;;;;;;;22.95;91.02;99803.03;12233489;19;20541;-83
2022/08/20 08:21:21;;;;;;;15.18;9.93;;;;;;;23.19;91.22;99810.91;12235112;19;20076;-85
2022/08/20 08:25:22;;;;;;;13.70;9.80;;;;;;;23.35;90.54;99811.19;12233580;19;20010;-84
2022/08/20 08:29:25;;;;;;;13.15;9.43;;;;;;;23.42;88.02;99819.97;12212863;19;20036;-83
2022/08/20 08:33:31;;;;;;;15.15;9.88;;;;;;;23.65;87.32;99817.75;12237172;19;20112;-84
2022/08/20 08:37:33;;;;;;;14.82;9.23;;;;;;;24.20;84.31;99813.97;12225653;19;20011;-83
2022/08/20 08:41:46;;;;;;;9.85;7.47;;;;;;;24.71;81.54;99819.59;12235785;19;20082;-82
2022/08/20 08:46:09;;;;;;;10.63;7.55;;;;;;;24.59;79.63;99814.72;12246528;19;20560;-83
2022/08/20 08:50:21;;;;;;;13.15;7.38;;;;;;;24.83;81.21;99821.66;12214487;19;20042;-84
2022/08/20 08:54:47;;;;;;;11.20;7.90;;;;;;;25.06;78.51;99820.09;12235846;19;20014;-84
2022/08/20 08:58:49;;;;;;;9.50;6.38;;;;;;;25.10;77.54;99817.41;12211445;19;20018;-83
2022/08/20 09:02:59;;;;;;;9.25;6.45;;;;;;;25.18;77.43;99825.81;12232747;19;20035;-83
2022/08/20 09:07:05;;;;;;;8.45;6.32;;;;;;;25.07;75.46;99812.47;12240979;19;20006;-83
2022/08/20 09:11:07;;;;;;;7.15;5.72;;;;;;;25.05;76.32;99812.00;12213277;19;20438;-82
2022/08/20 09:15:09;;;;;;;8.02;5.35;;;;;;;25.17;74.96;99807.25;12241693;19;20045;-82
2022/08/20 09:19:11;;;;;;;7.60;4.72;;;;;;;25.87;73.04;99818.56;12236197;19;20014;-82
2022/08/20 09:23:13;;;;;;;8.20;4.97;;;;;;;26.05;72.66;99807.03;12206406;19;20011;-83
2022/08/20 09:27:15;;;;;;;7.03;4.15;;;;;;;26.20;69.25;99820.41;12230066;19;20036;-82
2022/08/20 09:31:16;;;;;;;6.00;3.80;;;;;;;26.23;68.68;99813.25;12229895;19;20068;-82
2022/08/20 09:35:18;;;;;;;5.63;4.00;;;;;;;26.26;68.17;99807.69;12213457;19;20015;-82
2022/08/20 09:39:20;;;;;;;5.50;3.90;;;;;;;26.54;67.15;99809.81;12231758;19;20025;-80
2022/08/20 09:43:21;;;;;;;4.97;3.47;;;;;;;26.52;67.19;99804.50;12229563;19;20466;-81
2022/08/20 09:47:24;;;;;;;4.33;3.30;;;;;;;26.55;66.31;99808.63;12207561;19;20014;-81
2022/08/20 09:51:26;;;;;;;;;;;;;;;26.39;66.50;99799.22;12229586;19;20142;-81
2022/08/20 09:55:38;;;;;;;6.15;3.45;;;;;;;26.31;67.69;99779.22;12235939;19;19914;-82
2022/08/20 09:59:40;;;;;;;4.38;3.08;;;;;;;26.41;65.74;99788.38;12209981;19;20386;-79
2022/08/20 10:03:44;;;;;;;3.92;2.63;;;;;;;26.18;65.12;99788.09;12228125;19;20101;-79
2022/08/20 10:07:45;;;;;;;4.20;3.08;;;;;;;26.03;65.20;99776.34;12208953;19;20010;-80
2022/08/20 10:11:47;;;;;;;4.00;2.70;;;;;;;26.41;63.26;99775.06;12230613;19;20085;-80
2022/08/20 10:15:48;;;;;;;4.07;2.23;;;;;;;26.72;62.97;99773.59;12232394;19;20035;-80
2022/08/20 10:19:50;;;;;;;3.20;2.43;;;;;;;27.25;61.81;99769.47;12208425;19;20045;-81
2022/08/20 10:23:52;;;;;;;2.83;2.10;;;;;;;27.51;59.17;99773.75;12228944;19;20040;-78
2022/08/20 10:27:54;;;;;;;3.60;1.80;;;;;;;27.71;57.20;99769.81;12227742;19;20010;-80
2022/08/20 10:31:56;;;;;;;3.13;2.20;;;;;;;27.79;56.14;99770.06;12212249;19;20056;-81
2022/08/20 10:36:08;;;;;;;2.65;1.90;;;;;;;27.86;55.32;99753.22;12233151;19;20006;-80
2022/08/20 10:40:11;;;;;;;3.33;1.48;;;;;;;28.20;52.98;99757.28;12232470;19;20011;-80
2022/08/20 10:44:12;;;;;;;2.72;1.85;;;;;;;28.31;52.62;99752.66;12208393;19;20060;-81
2022/08/20 10:48:14;;;;;;;2.40;1.10;;;;;;;28.53;51.73;99748.31;12229236;19;20472;-79
2022/08/20 10:52:22;;;;;;;2.65;1.70;;;;;;;28.78;50.62;99753.66;12232100;19;20398;-82
2022/08/20 10:56:24;;;;;;;1.88;1.40;;;;;;;29.02;49.87;99756.19;12213295;19;20011;-83
2022/08/20 11:00:26;;;;;;;2.35;1.40;;;;;;;28.90;48.68;99750.66;12232890;19;20463;-82
2022/08/20 11:04:28;;;;;;;1.90;1.42;;;;;;;28.51;49.99;99749.88;12231432;19;20170;-82
2022/08/20 11:08:29;;;;;;;1.53;1.20;;;;;;;28.41;49.20;99756.97;12209244;19;20045;-79
2022/08/20 11:12:35;;;;;;;2.05;0.88;;;;;;;27.91;49.26;99748.09;12237802;19;20275;-84
2022/08/20 11:16:36;;;;;;;2.97;1.40;;;;;;;27.72;50.61;99748.84;12221695;19;20006;-81
2022/08/20 11:20:38;;;;;;;1.67;1.27;;;;;;;28.23;49.50;99738.69;12241126;19;20014;-82
2022/08/20 11:24:40;;;;;;;1.80;1.15;;;;;;;28.53;47.64;99739.00;12238372;19;20255;-80
2022/08/20 11:28:46;;;;;;;1.30;1.10;;;;;;;29.03;46.66;99745.66;12220104;19;20026;-82
2022/08/20 11:32:48;;;;;;;1.60;1.10;;;;;;;28.80;47.61;99742.78;12240609;19;20010;-83
2022/08/20 11:36:51;;;;;;;1.15;0.90;;;;;;;28.99;46.02;99731.41;12232369;19;20021;-84
2022/08/20 11:40:52;;;;;;;0.93;0.60;;;;;;;29.42;44.88;99732.22;12211592;19;20019;-83
2022/08/20 11:44:54;;;;;;;1.48;0.77;;;;;;;29.62;43.10;99729.31;12231750;19;20074;-81
2022/08/20 11:48:55;;;;;;;0.73;0.73;;;;;;;30.21;41.99;99719.28;12231806;19;20015;-80
2022/08/20 11:52:58;;;;;;;0.70;0.70;;;;;;;31.08;39.83;99719.97;12209967;19;20010;-82
2022/08/20 11:57:01;;;;;;;0.90;0.75;;;;;;;31.90;38.11;99721.94;12232796;19;20010;-81
2022/08/20 12:01:03;;;;;;;1.42;0.65;;;;;;;32.81;35.80;99722.00;12230401;19;20093;-81
2022/08/20 12:05:05;;;;;;;;;;;;;;;33.20;36.12;99715.59;12201930;19;20006;-82
2022/08/20 12:09:07;;;;;;;1.17;0.80;;;;;;;32.50;35.60;99720.66;12220281;19;19931;-82
2022/08/20 12:13:08;;;;;;;8.13;0.75;;;;;;;32.53;36.30;99705.59;12226949;19;20065;-79
2022/08/20 12:17:13;;;;;;;1.17;0.77;;;;;;;33.36;34.35;99705.41;12202274;19;20078;-80
2022/08/20 12:21:15;;;;;;;0.65;0.65;;;;;;;34.13;33.38;99716.41;12224956;19;20007;-79
2022/08/20 12:25:17;;;;;;;1.75;0.80;;;;;;;34.99;31.74;99707.47;12225119;19;20471;-80
2022/08/20 12:29:19;;;;;;;1.75;0.73;;;;;;;35.44;30.82;99696.13;12199954;19;20099;-80
2022/08/20 12:33:20;;;;;;;0.63;0.52;;;;;;;34.86;31.48;99701.44;12226781;19;20057;-80
2022/08/20 12:37:24;;;;;;;1.30;0.80;;;;;;;33.65;32.96;99704.63;12237540;19;20144;-80
2022/08/20 12:41:26;;;;;;;1.48;0.93;;;;;;;32.18;33.85;99696.44;12213185;19;20439;-80
2022/08/20 12:45:28;;;;;;;;;;;;;;;30.80;36.02;99696.91;12237267;19;20086;-82
2022/08/20 12:49:30;;;;;;;;;;;;;;;29.93;37.37;99703.44;12234166;19;20301;-83
2022/08/20 12:53:31;;;;;;;0.50;0.50;;;;;;;30.61;37.04;99701.53;12212459;19;19972;-83
2022/08/20 12:57:44;;;;;;;2.67;0.50;;;;;;;32.60;34.98;99682.81;12234797;19;20561;-83
2022/08/20 13:01:46;;;;;;;1.75;0.70;;;;;;;34.11;32.66;99695.19;12215234;19;20007;-80
2022/08/20 13:05:48;;;;;;;2.15;0.60;;;;;;;35.66;30.18;99696.78;12233852;19;20479;-80
2022/08/20 13:09:50;;;;;;;1.33;0.60;;;;;;;36.71;28.74;99698.09;12232132;19;20029;-80
2022/08/20 13:13:52;;;;;;;2.78;0.73;;;;;;;37.24;27.34;99694.88;12211661;19;20086;-80
2022/08/20 13:18:02;;;;;;;2.15;0.60;;;;;;;38.37;26.70;99691.22;12233340;19;20062;-81
2022/08/20 13:22:04;;;;;;;0.70;0.60;;;;;;;38.80;25.89;99678.00;12232802;19;20006;-80
2022/08/20 13:26:06;;;;;;;2.28;0.80;;;;;;;39.10;25.83;99674.03;12212144;19;20024;-81
2022/08/20 13:30:10;;;;;;;0.63;0.55;;;;;;;38.85;24.67;99660.22;12230666;19;20023;-81
2022/08/20 13:34:12;;;;;;;0.47;0.47;;;;;;;39.46;24.61;99661.66;12233133;19;20505;-81
2022/08/20 13:38:13;;;;;;;1.13;0.82;;;;;;;39.86;22.84;99656.47;12212802;19;20045;-80
2022/08/20 13:42:16;;;;;;;1.67;0.75;;;;;;;39.85;21.65;99654.84;12230450;19;20045;-80
2022/08/20 13:46:17;;;;;;;2.30;0.82;;;;;;;38.97;23.08;99659.53;12230545;19;20031;-81
2022/08/20 13:50:22;;;;;;;2.35;1.00;;;;;;;37.93;23.65;99655.97;12209983;19;20018;-80
2022/08/20 13:54:24;;;;;;;1.70;0.73;;;;;;;37.91;24.03;99657.63;12234444;19;20045;-80
2022/08/20 13:58:30;;;;;;;1.85;0.73;;;;;;;39.00;23.30;99649.16;12235467;19;20015;-81
2022/08/20 14:02:32;;;;;;;1.33;0.80;;;;;;;39.55;21.90;99638.75;12210340;19;20027;-80
2022/08/20 14:06:34;;;;;;;1.98;0.90;;;;;;;40.09;21.42;99644.66;12237252;19;20018;-81
2022/08/20 14:10:37;;;;;;;3.67;1.92;;;;;;;38.35;21.36;99639.06;12218591;19;20019;-80
2022/08/20 14:14:40;;;;;;;2.15;1.50;;;;;;;37.23;22.39;99630.88;12234666;19;20475;-81
2022/08/20 14:18:41;;;;;;;2.40;1.23;;;;;;;36.46;23.50;99628.72;12232129;19;20026;-80
2022/08/20 14:22:49;;;;;;;2.28;1.30;;;;;;;35.47;24.59;99632.25;12201497;19;20015;-79
2022/08/20 14:26:50;;;;;;;3.10;1.88;;;;;;;34.44;24.62;99643.16;12224845;19;20014;-80
2022/08/20 14:30:52;;;;;;;3.53;1.77;;;;;;;33.31;25.81;99647.88;12229640;19;20032;-82
2022/08/20 14:34:55;;;;;;;2.90;1.85;;;;;;;32.31;26.66;99650.50;12206574;19;20098;-83
2022/08/20 14:38:57;;;;;;;3.35;2.63;;;;;;;31.43;27.65;99649.53;12231145;19;20027;-83
2022/08/20 14:42:59;;;;;;;3.75;1.63;;;;;;;30.76;28.29;99645.63;12224949;19;20078;-82
2022/08/20 14:47:11;;;;;;;;;;;;;;;31.31;27.84;99645.75;12204943;19;20010;-82
2022/08/20 14:51:12;;;;;;;2.47;1.42;;;;;;;31.48;27.88;99641.44;12227870;19;19963;-81
2022/08/20 14:55:18;;;;;;;4.50;2.03;;;;;;;32.06;27.64;99636.94;12228181;19;20006;-82
2022/08/20 14:59:19;;;;;;;4.50;1.30;;;;;;;32.58;27.08;99634.72;12205912;19;20066;-78
2022/08/20 15:03:24;;;;;;;2.13;1.38;;;;;;;32.78;26.35;99631.50;12226907;19;20007;-82
2022/08/20 15:07:29;;;;;;;2.95;1.60;;;;;;;32.05;26.37;99641.00;12227865;19;20007;-83
2022/08/20 15:11:31;;;;;;;3.35;1.60;;;;;;;31.62;26.84;99640.75;12208059;19;20034;-82
2022/08/20 15:15:35;;;;;;;6.40;1.83;;;;;;;31.15;26.68;99633.03;12228094;19;20502;-82
2022/08/20 15:19:37;;;;;;;3.95;1.60;;;;;;;30.69;26.45;99631.31;12216294;19;20010;-82
2022/08/20 15:23:38;;;;;;;5.38;1.75;;;;;;;30.41;26.46;99638.34;12228469;19;20201;-82
2022/08/20 15:27:40;;;;;;;3.03;1.70;;;;;;;30.20;26.37;99621.00;12223778;19;20006;-82
2022/08/20 15:31:42;;;;;;;;;;;;;;;29.96;26.85;99631.66;12206070;19;20100;-81
2022/08/20 15:35:47;;;;;;;3.55;1.70;;;;;;;29.78;26.31;99641.97;12230531;19;19922;-82
2022/08/20 15:39:50;;;;;;;3.10;1.83;;;;;;;29.50;25.74;99637.44;12231026;19;20008;-83
2022/08/20 15:43:51;;;;;;;3.65;1.80;;;;;;;29.36;25.82;99631.56;12203829;19;20014;-82
2022/08/20 15:48:01;;;;;;;5.95;3.15;;;;;;;29.34;25.89;99635.97;12229237;19;20037;-82
2022/08/20 15:52:02;;;;;;;3.95;2.28;;;;;;;29.25;25.89;99625.72;12223325;19;20007;-82
2022/08/20 15:56:40;;;;;;;9.80;2.15;;;;;;;29.21;25.21;99636.19;12203295;19;20019;-85
2022/08/20 16:01:20;;;;;;;3.97;2.38;;;;;;;29.17;24.93;99634.47;12227984;19;20023;-83
2022/08/20 16:05:59;;;;;;;6.25;2.42;;;;;;;29.21;24.86;99632.50;12196869;19;20114;-82
2022/08/20 16:10:25;;;;;;;4.18;2.33;;;;;;;29.23;24.96;99635.78;12225108;19;20576;-83
2022/08/20 16:14:33;;;;;;;6.55;2.65;;;;;;;29.18;24.33;99636.09;12214316;19;20081;-83
2022/08/20 16:18:36;;;;;;;4.75;2.67;;;;;;;29.49;23.46;99623.66;12242059;19;20018;-82
2022/08/20 16:22:42;;;;;;;4.47;2.60;;;;;;;29.83;23.79;99621.72;12220522;19;20069;-83
2022/08/20 16:27:21;;;;;;;5.13;2.38;;;;;;;29.56;23.69;99625.75;12241171;19;20594;-83
2022/08/20 16:31:29;;;;;;;3.65;1.90;;;;;;;29.30;23.77;99645.25;12239721;19;20070;-83
2022/08/20 16:35:40;;;;;;;4.43;1.77;;;;;;;29.11;24.43;99641.66;12215607;19;20023;-83
2022/08/20 16:39:53;;;;;;;3.90;1.63;;;;;;;28.98;27.39;99639.00;12236750;19;20090;-82
2022/08/20 16:44:01;;;;;;;5.05;1.77;;;;;;;28.88;28.47;99650.13;12223931;19;20111;-84
2022/08/20 16:48:06;;;;;;;2.88;2.05;;;;;;;28.77;29.68;99647.13;12238815;19;20020;-84
2022/08/20 16:52:07;;;;;;;3.05;1.45;;;;;;;28.65;30.22;99655.81;12238570;19;20010;-83
2022/08/20 16:56:09;;;;;;;3.10;1.40;;;;;;;28.51;30.50;99654.31;12213821;19;20071;-85
2022/08/20 17:00:34;;;;;;;3.72;1.95;;;;;;;28.35;30.54;99665.72;12233574;19;20332;-81
2022/08/20 17:04:49;;;;;;;3.08;1.85;;;;;;;28.12;30.98;99668.47;12209420;19;20467;-83
2022/08/20 17:09:06;;;;;;;4.57;1.70;;;;;;;27.98;30.39;99659.66;12230136;19;20002;-82
2022/08/20 17:13:22;;;;;;;3.97;1.70;;;;;;;27.90;30.11;99669.16;12234105;19;19999;-82
2022/08/20 17:17:32;;;;;;;5.28;1.60;;;;;;;27.92;30.18;99672.47;12208217;19;20122;-82
2022/08/20 17:21:37;;;;;;;3.08;1.65;;;;;;;27.95;29.64;99678.19;12231264;19;20002;-81
2022/08/20 17:25:38;;;;;;;3.85;1.88;;;;;;;27.86;29.86;99674.75;12209553;19;20019;-83
2022/08/20 17:29:55;;;;;;;2.85;1.70;;;;;;;27.64;30.10;99670.59;12229165;19;20086;-82
2022/08/20 17:33:57;;;;;;;7.00;2.05;;;;;;;27.53;30.68;99683.66;12228970;19;20345;-82
2022/08/20 17:38:00;;;;;;;3.20;1.80;;;;;;;27.42;30.57;99693.88;12210473;19;20113;-82
2022/08/20 17:42:08;;;;;;;4.88;2.13;;;;;;;27.64;31.42;99689.59;12232478;19;20047;-84
2022/08/20 17:46:17;;;;;;;4.28;2.17;;;;;;;27.45;31.42;99693.16;12233805;19;20074;-83
2022/08/20 17:50:28;;;;;;;5.43;2.45;;;;;;;27.16;32.51;99703.75;12207232;19;20027;-83
2022/08/20 17:54:36;;;;;;;5.88;2.55;;;;;;;27.08;32.77;99703.91;12231602;19;20013;-82
2022/08/20 17:58:52;;;;;;;5.82;2.38;;;;;;;26.77;33.66;99709.16;12207960;19;20082;-82
2022/08/20 18:02:59;;;;;;;10.98;2.20;;;;;;;26.46;34.35;99717.50;12231953;19;20027;-82
2022/08/20 18:07:11;;;;;;;5.70;2.20;;;;;;;26.32;34.19;99723.53;12230526;19;20019;-84
2022/08/20 18:11:26;;;;;;;4.30;2.03;;;;;;;26.07;34.48;99734.91;12209872;19;20352;-83
2022/08/20 18:15:36;;;;;;;3.45;2.10;;;;;;;25.86;34.41;99743.53;12233911;19;20012;-82
2022/08/20 18:20:11;;;;;;;4.93;2.92;;;;;;;25.65;34.73;99737.16;12207986;19;20011;-83
2022/08/20 18:24:55;;;;;;;4.88;2.65;;;;;;;25.45;35.06;99751.00;12232973;19;20491;-83
2022/08/20 18:29:12;;;;;;;3.35;2.53;;;;;;;25.20;35.97;99738.88;12209846;19;20014;-82
2022/08/20 18:33:26;;;;;;;5.43;2.40;;;;;;;25.01;36.42;99736.56;12231292;19;20023;-82
2022/08/20 18:37:29;;;;;;;3.65;2.55;;;;;;;24.78;36.96;99753.06;12250490;19;20029;-82
2022/08/20 18:41:38;;;;;;;6.15;2.50;;;;;;;24.62;37.18;99757.69;12208404;19;20174;-81
2022/08/20 18:45:40;;;;;;;6.20;2.80;;;;;;;24.42;37.62;99762.19;12230314;19;20019;-83
2022/08/20 18:49:42;;;;;;;4.65;2.40;;;;;;;24.23;38.57;99768.25;12205943;19;20024;-81
2022/08/20 18:53:47;;;;;;;5.55;2.22;;;;;;;24.11;38.20;99771.00;12225840;19;20044;-81
2022/08/20 18:58:05;;;;;;;8.60;4.00;;;;;;;23.96;38.55;99775.22;12267119;19;20011;-81
2022/08/20 19:02:20;;;;;;;5.60;3.00;;;;;;;23.81;39.00;99787.06;12229375;19;20022;-82
2022/08/20 19:06:26;;;;;;;4.25;2.38;;;;;;;23.57;40.02;99785.66;12229477;19;20006;-81
2022/08/20 19:10:51;;;;;;;4.90;2.72;;;;;;;23.36;40.34;99798.81;12230978;19;20010;-82
2022/08/20 19:15:00;;;;;;;5.45;2.88;;;;;;;23.20;40.96;99795.69;12207064;19;20066;-81
2022/08/20 19:19:02;;;;;;;5.93;3.15;;;;;;;23.09;40.87;99800.88;12226142;19;20014;-81
2022/08/20 19:23:13;;;;;;;5.65;2.83;;;;;;;23.02;41.17;99808.16;12204608;19;20051;-82
2022/08/20 19:27:16;;;;;;;6.70;2.92;;;;;;;22.93;41.36;99803.34;12225750;19;20023;-81
2022/08/20 19:31:25;;;;;;;6.50;3.00;;;;;;;22.96;41.29;99811.16;12227453;19;20067;-81
2022/08/20 19:35:27;;;;;;;8.70;3.25;;;;;;;22.88;41.38;99811.13;12202560;19;20010;-81
2022/08/20 19:39:30;;;;;;;5.60;3.50;;;;;;;22.80;41.41;99811.94;12227041;19;20011;-81
2022/08/20 19:43:40;;;;;;;6.30;3.28;;;;;;;22.72;42.02;99814.41;12223398;19;20087;-81
2022/08/20 19:47:55;;;;;;;5.82;3.50;;;;;;;22.63;42.60;99824.00;12216380;19;20500;-82
2022/08/20 19:52:34;;;;;;;6.45;2.92;;;;;;;22.51;42.70;99821.84;12232692;19;20019;-82
2022/08/20 19:56:40;;;;;;;5.47;3.10;;;;;;;22.39;43.01;99819.69;12210096;19;20003;-81
2022/08/20 20:00:48;;;;;;;5.65;3.15;;;;;;;22.30;43.64;99828.09;12228735;19;20006;-82
2022/08/20 20:04:50;;;;;;;7.80;3.42;;;;;;;22.17;44.19;99822.66;12209732;19;20007;-82
2022/08/20 20:09:02;;;;;;;7.38;3.70;;;;;;;22.05;44.24;99829.69;12225888;19;20362;-82
2022/08/20 20:13:10;;;;;;;5.25;2.97;;;;;;;21.95;44.64;99834.75;12226225;19;20043;-83
2022/08/20 20:17:19;;;;;;;5.93;3.47;;;;;;;21.82;45.25;99828.94;12198605;19;20361;-83
2022/08/20 20:21:34;;;;;;;8.52;4.05;;;;;;;21.70;45.42;99825.94;12221773;19;20050;-83
2022/08/20 20:25:39;;;;;;;;;;;;;;;21.63;45.09;99824.78;12200596;19;20040;-83
2022/08/20 20:29:41;;;;;;;5.90;3.50;;;;;;;21.57;45.50;99838.09;12217113;19;19910;-83
2022/08/20 20:33:51;;;;;;;8.27;3.60;;;;;;;21.45;46.81;99823.84;12216878;19;20068;-81
2022/08/20 20:38:07;;;;;;;7.13;3.63;;;;;;;21.35;47.39;99831.34;12197382;19;20107;-83
2022/08/20 20:42:23;;;;;;;8.57;3.95;;;;;;;21.24;47.32;99824.38;12221623;19;20074;-83
2022/08/20 20:46:27;;;;;;;6.35;3.90;;;;;;;21.10;47.91;99827.25;12220820;19;20066;-83
2022/08/20 20:50:33;;;;;;;6.03;4.05;;;;;;;21.00;48.34;99823.88;12196382;19;20049;-84
2022/08/20 20:54:40;;;;;;;5.80;3.70;;;;;;;20.89;49.08;99823.31;12219610;19;20082;-82
2022/08/20 20:58:42;;;;;;;7.15;3.65;;;;;;;20.80;49.34;99822.44;12206383;19;20090;-83
2022/08/20 21:02:56;;;;;;;11.52;3.97;;;;;;;20.69;49.77;99825.47;12241610;19;20034;-84
2022/08/20 21:07:09;;;;;;;9.35;4.35;;;;;;;20.58;50.39;99824.03;12235503;19;20468;-83
2022/08/20 21:11:11;;;;;;;5.97;3.55;;;;;;;20.47;50.75;99826.25;12211692;19;20085;-82
2022/08/20 21:15:13;;;;;;;8.48;4.00;;;;;;;20.39;51.25;99828.97;12236898;19;20011;-83